Time;durP1;ratioP1;P1;durP2;ratioP2;P2;SDS_P1;SDS_P2;PMS_P1;PMS_P2;Temp;Humidity;BMP_temperature;BMP_pressure;BME280_temperature;BME280_humidity;BME280_pressure;Samples;Min_cycle;Max_cycle;Signal;HPM_P1;HPM_P2
2022/12/26 00:01:11;;;;;;;2.33;1.67;;;;;;;17.36;64.92;96713.53;10443307;28;20369;-31
2022/12/26 00:06:18;;;;;;;2.65;1.70;;;;;;;17.47;63.57;96737.19;10436326;28;20031;-30
2022/12/26 00:11:18;;;;;;;1.98;1.77;;;;;;;17.47;63.45;96727.06;10443110;28;20029;-30
2022/12/26 00:16:19;;;;;;;2.20;1.50;;;;;;;17.47;62.45;96727.06;10438182;28;20045;-30
2022/12/26 00:21:22;;;;;;;2.38;1.60;;;;;;;17.46;61.92;96720.31;10441221;28;20378;-30
2022/12/26 00:26:24;;;;;;;3.28;1.67;;;;;;;17.45;61.76;96729.63;10435875;28;20070;-32
2022/12/26 00:31:28;;;;;;;2.42;1.48;;;;;;;17.46;61.95;96730.44;10439944;28;20040;-30
2022/12/26 00:36:31;;;;;;;2.50;1.50;;;;;;;17.47;65.03;96722.00;10438834;28;20037;-30
2022/12/26 00:41:32;;;;;;;2.47;1.55;;;;;;;17.53;66.04;96724.56;10431331;28;20021;-30
2022/12/26 00:46:33;;;;;;;2.08;1.70;;;;;;;17.58;65.93;96730.50;10425856;28;20056;-30
2022/12/26 00:51:34;;;;;;;2.10;1.70;;;;;;;17.51;65.98;96716.97;10425297;28;20553;-30
2022/12/26 00:56:34;;;;;;;2.57;1.57;;;;;;;17.46;65.45;96730.44;10438137;28;20056;-30
2022/12/26 01:01:34;;;;;;;2.73;1.70;;;;;;;17.45;64.45;96727.09;10443210;28;20115;-29
2022/12/26 01:06:34;;;;;;;2.23;1.60;;;;;;;17.24;64.95;96696.56;10435894;28;20056;-30
2022/12/26 01:11:41;;;;;;;1.80;1.50;;;;;;;17.44;63.86;96722.00;10439539;28;20374;-30
2022/12/26 01:16:42;;;;;;;1.95;1.25;;;;;;;17.44;63.62;96738.06;10431949;28;20033;-30
2022/12/26 01:21:43;;;;;;;1.77;1.35;;;;;;;17.44;63.96;96734.66;10435215;28;20028;-31
2022/12/26 01:26:43;;;;;;;2.47;1.57;;;;;;;17.44;62.50;96739.72;10435721;28;20095;-30
2022/12/26 01:31:43;;;;;;;1.83;1.33;;;;;;;17.43;63.47;96735.50;10440914;28;21007;-30
2022/12/26 01:36:43;;;;;;;2.90;1.40;;;;;;;17.42;62.70;96727.06;10434931;28;20516;-31
2022/12/26 01:41:44;;;;;;;2.00;1.67;;;;;;;17.43;62.12;96732.97;10437275;28;20029;-30
2022/12/26 01:46:45;;;;;;;2.30;1.77;;;;;;;17.43;63.86;96725.38;10442371;28;20040;-29
2022/12/26 01:51:50;;;;;;;2.33;1.45;;;;;;;17.49;66.08;96748.19;10438906;28;20045;-31
2022/12/26 01:56:51;;;;;;;2.00;1.40;;;;;;;17.52;65.96;96751.59;10445358;28;20076;-30
2022/12/26 02:01:54;;;;;;;1.88;1.33;;;;;;;17.51;65.92;96757.47;10443287;28;20548;-30
2022/12/26 02:06:57;;;;;;;1.95;1.48;;;;;;;17.45;65.37;96764.19;10439784;28;20114;-30
2022/12/26 02:12:20;;;;;;;2.35;1.60;;;;;;;17.43;65.09;96755.75;10450737;28;20116;-30
2022/12/26 02:17:20;;;;;;;2.35;1.40;;;;;;;17.38;64.07;96752.34;10446311;28;20056;-30
2022/12/26 02:22:49;;;;;;;1.90;1.48;;;;;;;17.42;62.72;96764.19;10446590;28;20040;-29
2022/12/26 02:28:07;;;;;;;1.60;1.13;;;;;;;17.42;63.88;96774.31;10439574;28;20158;-31
2022/12/26 02:33:34;;;;;;;2.15;1.35;;;;;;;17.42;63.88;96771.78;10435840;28;20043;-30
2022/12/26 02:38:50;;;;;;;1.55;1.40;;;;;;;17.41;64.73;96762.50;10427941;28;20033;-30
2022/12/26 03:22:29;;;;;;;1.10;1.00;;;;;;;17.35;64.87;96743.03;10435492;28;20447;-30
2022/12/26 03:27:29;;;;;;;1.80;1.10;;;;;;;17.39;64.91;96748.97;10434931;28;20493;-31
2022/12/26 03:32:41;;;;;;;1.60;1.03;;;;;;;17.38;64.85;96748.13;10436558;28;20026;-29
2022/12/26 03:38:06;;;;;;;1.35;1.25;;;;;;;17.37;64.29;96736.34;10433235;28;20292;-30
2022/12/26 04:41:34;;;;;;;1.60;1.20;;;;;;;17.49;65.67;96735.53;10442396;28;20029;-30
2022/12/26 04:53:33;;;;;;;2.00;1.02;;;;;;;17.35;63.61;96722.78;10424249;28;20511;-31
2022/12/26 04:58:33;;;;;;;1.93;1.13;;;;;;;17.34;63.30;96721.06;10432322;28;20034;-31
2022/12/26 05:14:30;;;;;;;1.23;0.95;;;;;;;17.29;64.19;96714.31;10445164;28;20033;-31
2022/12/26 05:30:11;;;;;;;1.70;1.33;;;;;;;17.43;65.76;96736.38;10441623;28;20116;-30
2022/12/26 05:35:11;;;;;;;1.10;1.00;;;;;;;17.45;65.76;96728.75;10448116;28;20064;-30
2022/12/26 05:40:11;;;;;;;1.60;0.90;;;;;;;17.38;64.86;96732.09;10430867;28;20107;-32
2022/12/26 05:45:12;;;;;;;1.10;1.00;;;;;;;17.35;64.97;96727.84;10437116;28;20029;-30
2022/12/26 05:50:12;;;;;;;1.40;1.30;;;;;;;17.34;64.75;96745.56;10437478;28;20033;-30
2022/12/26 05:55:12;;;;;;;1.43;1.10;;;;;;;17.34;65.02;96743.03;10442257;28;20112;-31
2022/12/26 06:00:13;;;;;;;1.30;1.00;;;;;;;17.34;64.35;96751.44;10432940;28;20025;-30
2022/12/26 06:05:14;;;;;;;0.77;0.75;;;;;;;17.34;62.67;96725.31;10443690;28;21088;-30
2022/12/26 06:10:14;;;;;;;1.30;1.20;;;;;;;17.33;62.89;96718.56;10438954;28;20033;-31
2022/12/26 06:15:15;;;;;;;1.50;1.17;;;;;;;17.34;61.68;96710.13;10442795;28;20120;-30
2022/12/26 06:20:15;;;;;;;1.03;0.90;;;;;;;17.32;62.54;96689.03;10433430;28;20314;-30
2022/12/26 06:25:16;;;;;;;1.13;0.95;;;;;;;17.32;63.08;96701.69;10437150;28;20291;-31
2022/12/26 06:30:16;;;;;;;1.30;1.10;;;;;;;17.32;62.50;96694.94;10433652;28;20033;-30
2022/12/26 06:35:16;;;;;;;2.00;1.10;;;;;;;17.34;63.59;96697.47;10447431;28;20539;-30
2022/12/26 06:40:17;;;;;;;0.90;0.80;;;;;;;17.33;65.46;96678.91;10434555;28;20067;-30
2022/12/26 06:45:17;;;;;;;1.13;1.03;;;;;;;17.44;65.28;96691.63;10438591;28;20112;-30
2022/12/26 06:50:18;;;;;;;1.30;1.02;;;;;;;17.39;64.70;96688.22;10447852;28;20445;-30
2022/12/26 06:55:18;;;;;;;1.42;0.95;;;;;;;17.33;64.50;96680.59;10448037;28;20472;-30
2022/12/26 07:00:19;;;;;;;1.50;1.10;;;;;;;17.32;64.35;96678.91;10435407;28;20045;-30
2022/12/26 07:05:19;;;;;;;1.05;0.82;;;;;;;17.32;64.27;96682.28;10435935;28;20051;-31
2022/12/26 07:10:20;;;;;;;1.15;0.90;;;;;;;17.31;64.06;96685.66;10443557;28;20094;-31
2022/12/26 07:15:21;;;;;;;1.25;0.80;;;;;;;17.31;63.68;96697.47;10441289;28;20036;-31
2022/12/26 07:20:21;;;;;;;1.00;0.87;;;;;;;17.31;64.17;96703.38;10431645;28;20108;-30
2022/12/26 07:25:22;;;;;;;1.13;0.80;;;;;;;17.32;64.23;96706.75;10438784;28;20044;-31
2022/12/26 07:30:22;;;;;;;1.63;0.80;;;;;;;17.30;63.47;96723.59;10442813;28;20041;-30
2022/12/26 07:35:22;;;;;;;1.40;1.02;;;;;;;17.28;63.34;96716.00;10442745;28;20948;-30
2022/12/26 07:40:23;;;;;;;1.17;0.90;;;;;;;17.30;63.02;96716.00;10432921;28;20029;-30
2022/12/26 07:45:23;;;;;;;1.00;0.90;;;;;;;17.29;63.51;96712.63;10438577;28;20288;-29
2022/12/26 07:50:25;;;;;;;1.30;0.93;;;;;;;17.32;65.65;96730.34;10434923;28;20429;-29
2022/12/26 07:55:26;;;;;;;1.05;0.90;;;;;;;17.40;65.53;96725.38;10441163;28;20283;-30
2022/12/26 08:00:26;;;;;;;1.37;0.90;;;;;;;17.40;65.13;96746.44;10437070;28;20025;-31
2022/12/26 08:05:27;;;;;;;0.97;0.87;;;;;;;17.35;64.86;96742.19;10434828;28;20059;-32
2022/12/26 08:10:27;;;;;;;1.10;1.00;;;;;;;17.30;64.77;96749.75;10441523;28;20036;-31
2022/12/26 08:15:27;;;;;;;1.10;0.80;;;;;;;17.28;64.68;96766.63;10437844;28;20033;-31
2022/12/26 08:20:28;;;;;;;1.40;1.17;;;;;;;17.29;64.18;96782.63;10437137;28;20065;-30
2022/12/26 08:25:28;;;;;;;1.07;0.83;;;;;;;17.28;64.67;96807.09;10430616;28;20025;-30
2022/12/26 08:30:28;;;;;;;1.00;0.90;;;;;;;17.29;64.18;96813.84;10434396;28;20050;-32
2022/12/26 08:35:29;;;;;;;1.50;1.03;;;;;;;17.21;64.25;96815.50;10439387;28;20033;-30
2022/12/26 08:40:29;;;;;;;1.57;1.00;;;;;;;17.27;63.65;96832.38;10431167;28;20040;-29
2022/12/26 08:45:30;;;;;;;1.00;0.90;;;;;;;17.29;64.48;96848.41;10430395;28;20033;-31
2022/12/26 08:50:30;;;;;;;1.20;0.80;;;;;;;17.27;63.43;96876.25;10445218;28;20037;-30
2022/12/26 08:55:30;;;;;;;1.00;0.93;;;;;;;17.28;64.03;96877.94;10442643;28;20040;-30
2022/12/26 09:00:31;;;;;;;0.83;0.70;;;;;;;17.29;63.22;96906.63;10433925;28;20025;-30
2022/12/26 09:05:31;;;;;;;1.07;0.97;;;;;;;17.32;65.41;96904.13;10432806;28;20033;-30
2022/12/26 09:10:32;;;;;;;0.95;0.70;;;;;;;17.38;65.33;96920.22;10434662;28;20033;-30
2022/12/26 09:15:32;;;;;;;1.23;0.80;;;;;;;17.32;64.92;96906.66;10436662;28;20025;-31
2022/12/26 09:20:32;;;;;;;0.93;0.90;;;;;;;17.29;64.70;96902.41;10435506;28;20033;-30
2022/12/26 09:25:33;;;;;;;2.00;1.07;;;;;;;17.26;64.75;96920.09;10423754;28;20814;-31
2022/12/26 09:30:33;;;;;;;0.50;0.50;;;;;;;17.28;64.51;96935.28;10424389;28;20044;-30
2022/12/26 09:35:33;;;;;;;0.70;0.70;;;;;;;17.26;64.75;96940.31;10433698;28;20040;-31
2022/12/26 09:40:59;;;;;;;0.97;0.87;;;;;;;17.25;64.81;96963.94;10426489;28;20057;-30
2022/12/26 09:46:09;;;;;;;0.88;0.85;;;;;;;17.25;64.53;96983.34;10427676;28;20036;-30
2022/12/26 09:51:10;;;;;;;1.30;0.80;;;;;;;17.24;64.10;96976.59;10436311;28;20072;-31
2022/12/26 09:56:15;;;;;;;0.88;0.70;;;;;;;17.26;64.03;96995.16;10440443;28;20516;-31
2022/12/26 10:01:22;;;;;;;0.73;0.70;;;;;;;17.06;64.56;96963.78;10439997;28;20128;-30
2022/12/26 10:06:40;;;;;;;0.90;0.70;;;;;;;17.26;63.89;96990.09;10438118;28;20505;-31
2022/12/26 10:12:13;;;;;;;1.10;0.90;;;;;;;17.25;63.42;97006.94;10442674;28;20028;-30
2022/12/26 10:17:16;;;;;;;0.88;0.70;;;;;;;17.27;65.15;97022.16;10438480;28;20037;-31
2022/12/26 10:22:44;;;;;;;0.82;0.70;;;;;;;17.30;65.41;97028.09;10436785;28;20083;-30
2022/12/26 10:27:48;;;;;;;0.98;0.80;;;;;;;17.37;64.97;97021.44;10433592;28;20061;-31
2022/12/26 10:33:00;;;;;;;1.00;0.90;;;;;;;17.28;64.58;97029.78;10433866;28;20034;-30
2022/12/26 10:38:12;;;;;;;0.90;0.75;;;;;;;17.24;64.41;97037.31;10431164;28;20029;-30
2022/12/26 10:43:27;;;;;;;0.80;0.60;;;;;;;17.23;64.88;97051.63;10440515;28;20485;-30
2022/12/26 10:48:28;;;;;;;1.00;0.80;;;;;;;17.18;64.29;97037.25;10435101;28;20044;-30
2022/12/26 10:53:29;;;;;;;1.38;0.93;;;;;;;17.22;64.56;97044.03;10442234;28;20404;-30
2022/12/26 10:58:33;;;;;;;0.95;0.82;;;;;;;17.23;64.06;97035.63;10433425;28;20034;-32
2022/12/26 11:03:33;;;;;;;0.80;0.60;;;;;;;17.22;63.98;97032.22;10441758;28;20040;-30
2022/12/26 11:08:48;;;;;;;1.60;0.93;;;;;;;17.22;64.24;97013.66;10437970;28;20052;-30
2022/12/26 11:13:55;;;;;;;0.63;0.60;;;;;;;17.21;62.95;97020.41;10435920;28;20365;-31
2022/12/26 11:18:56;;;;;;;0.77;0.70;;;;;;;17.15;63.19;97020.34;10444708;28;20033;-30
2022/12/26 11:24:05;;;;;;;0.60;0.60;;;;;;;17.21;63.47;97022.94;10428037;28;20025;-30
2022/12/26 11:29:15;;;;;;;0.70;0.70;;;;;;;17.21;63.06;97032.22;10440080;28;20033;-31
2022/12/26 11:34:23;;;;;;;1.20;0.90;;;;;;;17.24;65.51;97028.03;10435673;28;20060;-30
2022/12/26 11:39:27;;;;;;;0.82;0.77;;;;;;;17.30;65.08;97001.94;10433344;28;20468;-32
2022/12/26 11:44:33;;;;;;;0.95;0.70;;;;;;;17.27;64.45;97001.91;10442688;28;20035;-30
2022/12/26 11:49:44;;;;;;;1.17;0.90;;;;;;;17.22;64.37;96998.47;10437248;28;20075;-30
2022/12/26 11:54:49;;;;;;;1.10;0.95;;;;;;;17.19;64.34;97008.59;10437522;28;20120;-30
2022/12/26 11:59:52;;;;;;;0.70;0.68;;;;;;;17.20;64.43;97021.25;10435449;28;20068;-29
2022/12/26 12:05:00;;;;;;;0.60;0.60;;;;;;;17.18;64.02;97017.88;10437732;28;20532;-30
2022/12/26 12:10:16;;;;;;;1.00;0.75;;;;;;;17.21;64.36;97027.16;10434073;28;20047;-30
2022/12/26 12:15:46;;;;;;;0.63;0.60;;;;;;;17.19;64.51;97011.97;10437221;28;20035;-31
2022/12/26 12:21:00;;;;;;;0.80;0.50;;;;;;;17.19;64.05;97023.75;10438638;28;20497;-31
2022/12/26 12:26:39;;;;;;;1.00;0.60;;;;;;;17.18;63.88;97032.19;10432367;28;20091;-30
2022/12/26 12:32:08;;;;;;;0.60;0.60;;;;;;;17.16;63.82;97022.03;10428374;28;20045;-30
2022/12/26 12:37:24;;;;;;;0.63;0.63;;;;;;;17.17;63.67;97011.09;10423830;28;20071;-30
2022/12/26 12:43:03;;;;;;;0.75;0.70;;;;;;;17.18;64.14;97006.91;10443407;28;20123;-30
2022/12/26 12:48:19;;;;;;;0.77;0.50;;;;;;;17.21;65.04;97002.72;10429769;28;20493;-30
2022/12/26 12:53:26;;;;;;;1.00;0.80;;;;;;;17.28;65.07;97003.59;10430911;28;20047;-30
2022/12/26 12:58:56;;;;;;;0.70;0.70;;;;;;;17.28;64.83;97008.66;10433572;28;20052;-30
2022/12/26 13:04:09;;;;;;;0.40;0.40;;;;;;;17.10;64.10;97008.50;10433837;28;20033;-30
2022/12/26 13:09:41;;;;;;;0.85;0.75;;;;;;;16.97;64.41;96987.28;10432755;28;20040;-30
2022/12/26 13:14:50;;;;;;;0.80;0.60;;;;;;;17.18;64.46;97022.06;10418579;28;20045;-30
2022/12/26 13:20:14;;;;;;;0.80;0.40;;;;;;;17.16;64.52;97006.03;10433677;28;20052;-30
2022/12/26 13:25:17;;;;;;;0.98;0.70;;;;;;;17.17;64.11;96987.50;10436665;28;20025;-30
2022/12/26 13:30:17;;;;;;;0.70;0.60;;;;;;;17.16;63.86;96965.56;10442258;28;20029;-31
2022/12/26 13:35:54;;;;;;;0.82;0.82;;;;;;;17.18;63.96;96976.53;10448375;28;20556;-31
2022/12/26 13:46:39;;;;;;;0.70;0.60;;;;;;;17.13;62.98;96988.28;10417966;28;20048;-30
2022/12/26 13:51:43;;;;;;;0.60;0.57;;;;;;;17.13;63.01;96973.09;10427539;28;20118;-30
2022/12/26 13:56:43;;;;;;;0.82;0.65;;;;;;;17.14;63.60;96987.47;10447152;28;20075;-31
2022/12/26 14:01:57;;;;;;;0.50;0.50;;;;;;;17.14;64.66;96984.94;10437574;28;20137;-30
2022/12/26 14:07:57;;;;;;;0.60;0.52;;;;;;;17.21;65.12;96989.19;10437106;28;20131;-31
2022/12/26 14:13:36;;;;;;;1.05;0.70;;;;;;;17.24;64.47;96982.47;10359987;28;20120;-30
2022/12/26 14:19:06;;;;;;;1.08;0.70;;;;;;;17.18;64.04;96971.47;10385228;28;20421;-31
2022/12/26 14:24:34;;;;;;;0.93;0.55;;;;;;;17.13;64.20;96946.13;10432671;28;20546;-30
2022/12/26 14:30:03;;;;;;;0.63;0.63;;;;;;;17.10;64.28;96955.38;10445633;28;20033;-30
2022/12/26 14:35:27;;;;;;;0.38;0.35;;;;;;;17.12;64.04;96952.03;10447719;28;20064;-33
2022/12/26 14:40:36;;;;;;;0.80;0.60;;;;;;;17.11;64.33;96954.53;10435602;28;20027;-31
2022/12/26 14:45:37;;;;;;;0.50;0.40;;;;;;;17.12;64.24;96956.22;10434740;28;20080;-30
2022/12/26 14:50:51;;;;;;;0.50;0.50;;;;;;;17.12;64.12;96964.69;10449859;28;20099;-31
2022/12/26 14:55:54;;;;;;;0.80;0.52;;;;;;;17.13;64.32;96952.88;10449612;28;20170;-31
2022/12/26 15:01:16;;;;;;;0.73;0.60;;;;;;;17.13;64.15;96940.22;10432496;28;20072;-30
2022/12/26 15:06:19;;;;;;;0.65;0.55;;;;;;;17.11;64.38;96963.00;10443193;28;20086;-30
2022/12/26 15:11:41;;;;;;;0.50;0.50;;;;;;;17.10;64.19;96919.97;10439663;28;20144;-30
2022/12/26 15:17:09;;;;;;;0.70;0.52;;;;;;;17.10;64.81;96966.34;10434292;28;20063;-31
2022/12/26 15:22:30;;;;;;;0.90;0.60;;;;;;;17.18;64.92;96976.53;10435750;28;20048;-30
2022/12/26 15:27:56;;;;;;;0.50;0.50;;;;;;;17.22;64.59;96990.88;10437598;28;20041;-30
2022/12/26 15:33:05;;;;;;;0.40;0.40;;;;;;;17.16;63.70;96973.16;10431665;28;20097;-30
2022/12/26 15:38:24;;;;;;;0.65;0.50;;;;;;;17.10;64.26;96945.25;10433573;28;20473;-30
2022/12/26 15:43:31;;;;;;;0.50;0.50;;;;;;;17.10;64.18;96932.59;10443112;28;20033;-30
2022/12/26 15:48:56;;;;;;;0.50;0.50;;;;;;;17.11;64.39;96944.41;10439824;28;20025;-30
2022/12/26 15:54:18;;;;;;;0.47;0.40;;;;;;;17.09;64.36;96962.09;10429415;28;20037;-31
2022/12/26 15:59:38;;;;;;;0.60;0.60;;;;;;;17.08;64.54;96969.69;10433744;28;20501;-30
2022/12/26 16:04:45;;;;;;;0.40;0.40;;;;;;;17.09;64.56;96966.34;10433310;28;20037;-30
2022/12/26 16:09:51;;;;;;;0.70;0.47;;;;;;;17.07;64.67;96968.84;10434629;28;20044;-30
2022/12/26 16:15:10;;;;;;;0.55;0.55;;;;;;;17.09;64.67;96962.09;10437268;28;20705;-31
2022/12/26 16:25:52;;;;;;;1.08;0.52;;;;;;;17.08;64.56;96974.75;10431751;28;20405;-30
2022/12/26 16:30:52;;;;;;;0.82;0.65;;;;;;;17.06;64.74;96989.09;10431658;28;20037;-30
2022/12/26 16:35:52;;;;;;;0.50;0.50;;;;;;;17.12;64.88;96972.28;10439894;28;20033;-33
2022/12/26 16:40:55;;;;;;;0.37;0.37;;;;;;;17.18;64.75;96956.28;10433294;28;20393;-30
2022/12/26 16:45:59;;;;;;;0.50;0.45;;;;;;;17.16;64.40;96971.44;10429729;28;20035;-31
2022/12/26 16:51:23;;;;;;;0.40;0.40;;;;;;;17.10;64.07;96976.47;10443014;28;20071;-30
2022/12/26 16:56:31;;;;;;;0.60;0.50;;;;;;;17.07;64.13;96957.88;10441208;28;20029;-30
2022/12/26 17:01:33;;;;;;;0.50;0.43;;;;;;;17.08;64.28;96967.16;10439116;28;20065;-30
2022/12/26 17:06:37;;;;;;;0.80;0.63;;;;;;;17.06;64.55;96992.44;10427135;28;20033;-30
2022/12/26 17:11:50;;;;;;;0.47;0.40;;;;;;;17.07;64.28;96999.19;10436858;28;20108;-30
2022/12/26 17:16:57;;;;;;;0.35;0.35;;;;;;;17.05;64.49;96980.63;10441641;28;20047;-30
2022/12/26 17:22:19;;;;;;;0.35;0.30;;;;;;;17.04;64.50;96973.88;10445401;28;20021;-30
2022/12/26 17:27:25;;;;;;;0.52;0.52;;;;;;;17.05;64.26;96975.56;10444023;28;20033;-30
2022/12/26 17:33:02;;;;;;;0.60;0.60;;;;;;;17.06;64.56;96989.09;10436824;28;20030;-30
2022/12/26 17:38:10;;;;;;;0.60;0.50;;;;;;;17.04;64.53;97009.28;10404677;28;20033;-30
2022/12/26 17:43:10;;;;;;;0.47;0.45;;;;;;;17.05;64.68;97026.16;10449415;28;20074;-32
2022/12/26 17:48:11;;;;;;;0.57;0.55;;;;;;;17.04;64.85;97018.53;10446254;28;20923;-32
2022/12/26 17:53:25;;;;;;;0.68;0.68;;;;;;;17.11;64.71;97032.97;10444539;28;20256;-29
2022/12/26 17:58:27;;;;;;;0.50;0.50;;;;;;;17.16;64.46;97023.75;10441797;28;20033;-30
2022/12/26 18:03:27;;;;;;;0.55;0.50;;;;;;;17.08;63.29;97010.16;10449511;28;20078;-31
2022/12/26 18:08:37;;;;;;;0.60;0.60;;;;;;;17.10;62.32;97026.19;10431445;28;20025;-30
2022/12/26 18:13:37;;;;;;;0.50;0.50;;;;;;;17.15;63.76;97014.47;10436098;28;20034;-30
2022/12/26 18:18:41;;;;;;;0.32;0.30;;;;;;;17.21;63.77;97027.16;10444337;28;20029;-31
2022/12/26 18:23:41;;;;;;;0.80;0.38;;;;;;;17.22;63.56;97038.97;10442318;28;20021;-30
2022/12/26 18:28:42;;;;;;;0.40;0.40;;;;;;;17.26;63.72;97033.13;10444321;28;20029;-30
2022/12/26 18:33:43;;;;;;;0.70;0.40;;;;;;;17.27;63.40;97044.94;10435162;28;20132;-31
2022/12/26 18:38:43;;;;;;;0.43;0.40;;;;;;;17.27;62.85;97039.88;10436827;28;20047;-30
2022/12/26 18:43:44;;;;;;;0.47;0.40;;;;;;;17.26;63.79;97076.13;10430703;28;20489;-30
2022/12/26 18:48:45;;;;;;;1.30;0.50;;;;;;;17.25;63.71;97104.81;10451369;28;20040;-29
2022/12/26 18:53:46;;;;;;;0.90;0.60;;;;;;;17.26;63.94;97172.28;10431009;28;20047;-30
2022/12/26 18:58:48;;;;;;;0.40;0.40;;;;;;;17.26;62.93;97168.06;10434585;28;20029;-30
2022/12/26 19:03:48;;;;;;;0.65;0.50;;;;;;;17.28;63.55;97175.69;10432907;28;20033;-30
2022/12/26 19:08:48;;;;;;;1.97;0.47;;;;;;;17.30;63.53;97174.00;10439108;28;20511;-30
2022/12/26 19:13:49;;;;;;;0.80;0.50;;;;;;;17.28;63.41;97176.53;10432608;28;21739;-31
2022/12/26 19:18:50;;;;;;;0.60;0.47;;;;;;;17.26;63.39;97180.72;10440729;28;20043;-30
2022/12/26 19:23:51;;;;;;;0.32;0.32;;;;;;;17.26;63.50;97198.44;10425755;28;20045;-30
2022/12/26 19:28:53;;;;;;;0.40;0.40;;;;;;;17.24;63.50;97189.13;10435602;28;20037;-30
2022/12/26 19:33:56;;;;;;;0.68;0.30;;;;;;;17.24;63.45;97199.25;10440743;28;20033;-30
2022/12/26 19:38:57;;;;;;;0.57;0.57;;;;;;;17.24;63.26;97204.31;10424266;28;20568;-30
2022/12/26 19:43:58;;;;;;;0.70;0.60;;;;;;;17.24;63.72;97205.16;10439201;28;20021;-30
2022/12/26 19:48:59;;;;;;;0.50;0.45;;;;;;;17.23;63.42;97218.66;10431018;28;20063;-31
2022/12/26 19:53:59;;;;;;;0.70;0.65;;;;;;;17.23;63.38;97227.94;10429053;28;20045;-31
2022/12/26 19:58:59;;;;;;;0.77;0.53;;;;;;;17.22;63.28;97221.13;10431551;28;20088;-30
2022/12/26 20:04:02;;;;;;;0.60;0.40;;;;;;;17.17;63.58;97215.19;10433766;28;20064;-30
2022/12/26 20:09:06;;;;;;;0.60;0.45;;;;;;;17.21;63.13;97222.84;10439848;28;20037;-30
2022/12/26 20:14:09;;;;;;;0.80;0.60;;;;;;;17.23;63.52;97221.16;10433002;28;20057;-30
2022/12/26 20:19:10;;;;;;;0.73;0.73;;;;;;;17.25;63.55;97228.78;10434299;28;20036;-29
2022/12/26 20:24:11;;;;;;;0.40;0.30;;;;;;;17.25;62.75;97244.81;10427864;28;20036;-30
2022/12/26 20:29:12;;;;;;;0.68;0.38;;;;;;;17.25;63.19;97251.56;10435515;28;20037;-30
2022/12/26 20:34:12;;;;;;;0.73;0.50;;;;;;;17.24;62.87;97260.00;10436072;28;20033;-30
2022/12/26 20:39:16;;;;;;;0.40;0.40;;;;;;;17.25;62.68;97265.06;10423419;28;20032;-30
2022/12/26 20:44:17;;;;;;;1.20;0.55;;;;;;;17.23;62.83;97270.94;10436615;28;20032;-31
2022/12/26 20:49:17;;;;;;;0.75;0.60;;;;;;;17.23;62.62;97283.59;10427483;28;20052;-32
2022/12/26 20:54:17;;;;;;;0.40;0.40;;;;;;;17.24;62.00;97290.34;10436375;28;20109;-30
2022/12/26 20:59:18;;;;;;;0.32;0.32;;;;;;;17.24;62.53;97318.19;10426823;28;20037;-30
2022/12/26 21:04:20;;;;;;;0.47;0.47;;;;;;;17.24;62.22;97330.84;10428970;28;20099;-30
2022/12/26 21:09:21;;;;;;;0.47;0.40;;;;;;;17.24;62.35;97335.91;10429848;28;20450;-30
2022/12/26 21:14:22;;;;;;;0.63;0.40;;;;;;;17.21;62.23;97336.72;10432781;28;20112;-30
2022/12/26 21:19:25;;;;;;;0.43;0.43;;;;;;;17.24;62.22;97372.16;10430100;28;20787;-30
2022/12/26 21:24:28;;;;;;;0.60;0.60;;;;;;;17.24;62.01;97371.34;10425415;28;20028;-30
2022/12/26 21:29:32;;;;;;;0.45;0.45;;;;;;;17.24;62.51;97373.88;10432201;28;20033;-31
2022/12/26 21:34:33;;;;;;;0.35;0.30;;;;;;;17.21;62.84;97381.38;10430749;28;20040;-30
2022/12/26 21:39:35;;;;;;;0.38;0.25;;;;;;;17.25;62.85;97399.16;10427551;28;20051;-30
2022/12/26 21:44:35;;;;;;;0.47;0.40;;;;;;;17.23;62.20;97400.00;10437095;28;20025;-30
2022/12/26 21:49:36;;;;;;;0.40;0.40;;;;;;;17.26;61.92;97425.34;10432138;28;20535;-30
2022/12/26 21:59:56;;;;;;;0.60;0.50;;;;;;;17.09;62.48;97426.75;10449455;28;20025;-30
2022/12/26 22:04:56;;;;;;;0.47;0.40;;;;;;;17.18;62.11;97455.59;10440809;28;20493;-30
2022/12/26 22:09:56;;;;;;;1.50;0.53;;;;;;;17.21;62.17;97462.38;10443350;28;20287;-30
2022/12/26 22:14:57;;;;;;;0.70;0.50;;;;;;;17.19;62.31;97458.97;10448272;28;20290;-30
2022/12/26 22:19:57;;;;;;;2.23;0.67;;;;;;;17.18;62.60;97467.38;10445975;28;20029;-30
2022/12/26 22:24:57;;;;;;;0.40;0.40;;;;;;;17.17;62.37;97476.63;10442964;28;20044;-30
2022/12/26 22:29:58;;;;;;;0.80;0.40;;;;;;;17.09;62.29;97462.16;10446872;28;20033;-30
2022/12/26 22:34:58;;;;;;;0.45;0.40;;;;;;;17.10;62.36;97477.38;10446910;28;20436;-31
2022/12/26 22:39:58;;;;;;;0.50;0.40;;;;;;;17.16;62.18;97484.22;10438663;28;20029;-31
2022/12/26 22:44:59;;;;;;;0.20;0.20;;;;;;;17.20;62.54;97491.03;10441372;28;20033;-31
2022/12/26 22:49:59;;;;;;;2.63;0.33;;;;;;;17.20;62.47;97494.41;10439268;28;20458;-30
2022/12/26 22:54:59;;;;;;;2.50;1.10;;;;;;;17.22;62.39;97510.47;10441139;28;20478;-30
2022/12/26 23:00:00;;;;;;;0.60;0.50;;;;;;;17.18;62.13;97506.22;10438265;28;20029;-30
2022/12/26 23:05:01;;;;;;;2.10;0.40;;;;;;;17.15;62.51;97523.00;10436527;28;20038;-30
2022/12/26 23:10:01;;;;;;;0.43;0.40;;;;;;;17.13;62.26;97532.22;10440424;28;20382;-30
2022/12/26 23:15:02;;;;;;;0.40;0.40;;;;;;;17.12;62.51;97533.91;10439640;28;20033;-30
2022/12/26 23:25:24;;;;;;;0.25;0.20;;;;;;;17.11;62.43;97556.66;10438365;28;20063;-30
2022/12/26 23:30:29;;;;;;;0.47;0.30;;;;;;;17.09;62.56;97560.84;10438134;28;20179;-30
2022/12/26 23:35:30;;;;;;;0.55;0.38;;;;;;;17.06;62.11;97574.28;10442264;28;20429;-30
2022/12/26 23:40:30;;;;;;;0.53;0.30;;;;;;;17.06;62.32;97579.34;10433738;28;20032;-30
2022/12/26 23:45:31;;;;;;;0.50;0.32;;;;;;;17.07;62.25;97587.78;10444023;28;20044;-30
2022/12/26 23:50:31;;;;;;;0.37;0.37;;;;;;;17.07;62.33;97585.25;10447376;28;20086;-30
2022/12/26 23:55:32;;;;;;;0.30;0.30;;;;;;;17.05;62.37;97586.88;10439179;28;21147;-30
